createdAt,value
2016-03-29T00:00:38.505Z,0
2016-03-29T00:01:38.523Z,0
2016-03-29T00:02:51.323Z,0
2016-03-29T00:03:51.326Z,0
2016-03-29T00:05:03.582Z,0
2016-03-29T00:05:38.582Z,0
2016-03-29T00:07:04.306Z,0
2016-03-29T00:07:48.165Z,0
2016-03-29T00:09:07.483Z,0
2016-03-29T00:09:48.217Z,0
2016-03-29T00:11:50.848Z,0
2016-03-29T00:12:29.132Z,0
2016-03-29T00:13:03.463Z,0
2016-03-29T00:14:29.138Z,0
2016-03-29T00:15:03.327Z,0
2016-03-29T00:16:03.485Z,0
2016-03-29T00:17:03.520Z,0
2016-03-29T00:18:03.554Z,0
2016-03-29T00:19:04.182Z,0
2016-03-29T00:20:04.278Z,0
2016-03-29T00:21:04.984Z,0
2016-03-29T00:22:16.315Z,0
2016-03-29T00:23:04.223Z,0
2016-03-29T00:24:03.633Z,0
2016-03-29T00:25:16.323Z,0
2016-03-29T00:26:16.388Z,0
2016-03-29T00:27:16.437Z,0
2016-03-29T00:28:03.675Z,0
2016-03-29T00:29:03.693Z,0
2016-03-29T00:30:03.742Z,0
2016-03-29T00:31:03.745Z,0
2016-03-29T00:32:03.841Z,0
2016-03-29T00:33:03.798Z,0
2016-03-29T00:34:10.128Z,0
2016-03-29T00:35:03.772Z,0
2016-03-29T00:36:03.806Z,0
2016-03-29T00:37:03.839Z,0
2016-03-29T00:38:03.858Z,0
2016-03-29T00:39:03.844Z,0
2016-03-29T00:40:04.083Z,0
2016-03-29T00:41:04.335Z,0
2016-03-29T00:42:03.900Z,0
2016-03-29T00:43:16.636Z,0
2016-03-29T00:44:03.952Z,0
2016-03-29T00:45:16.689Z,0
2016-03-29T00:46:16.691Z,0
2016-03-29T00:47:23.320Z,0
2016-03-29T00:48:23.213Z,0
2016-03-29T00:49:04.013Z,0
2016-03-29T00:50:04.030Z,0
2016-03-29T00:51:04.143Z,0
2016-03-29T00:52:04.068Z,0
2016-03-29T00:53:10.335Z,0
2016-03-29T00:54:04.291Z,0
2016-03-29T00:55:04.138Z,0
2016-03-29T00:56:04.141Z,0
2016-03-29T00:57:04.143Z,0
2016-03-29T00:58:04.193Z,0
2016-03-29T00:59:04.196Z,0
2016-03-29T01:00:10.464Z,0
2016-03-29T01:01:04.216Z,0
2016-03-29T01:02:23.438Z,0
2016-03-29T01:03:04.253Z,0
2016-03-29T01:04:23.600Z,0
2016-03-29T01:05:04.258Z,0
2016-03-29T01:06:04.339Z,0
2016-03-29T01:07:10.592Z,0
2016-03-29T01:08:03.662Z,0
2016-03-29T01:09:04.352Z,0
2016-03-29T01:10:04.355Z,0
2016-03-29T01:11:04.374Z,0
2016-03-29T01:12:04.376Z,0
2016-03-29T01:13:04.394Z,0
2016-03-29T01:14:04.428Z,0
2016-03-29T01:15:04.478Z,0
2016-03-29T01:16:05.871Z,0
2016-03-29T01:17:04.468Z,0
2016-03-29T01:18:04.455Z,0
2016-03-29T01:19:04.551Z,0
2016-03-29T01:20:04.523Z,0
2016-03-29T01:21:04.634Z,0
2016-03-29T01:22:04.544Z,0
2016-03-29T01:23:04.546Z,0
2016-03-29T01:24:17.315Z,0
2016-03-29T01:25:04.629Z,0
2016-03-29T01:26:04.570Z,0
2016-03-29T01:27:04.620Z,0
2016-03-29T01:28:17.387Z,0
2016-03-29T01:29:04.656Z,0
2016-03-29T01:30:23.878Z,0
2016-03-29T01:31:06.114Z,0
2016-03-29T01:32:04.695Z,0
2016-03-29T01:33:04.714Z,0
2016-03-29T01:34:11.670Z,0
2016-03-29T01:35:04.750Z,0
2016-03-29T01:36:04.783Z,0
2016-03-29T01:37:17.521Z,0
2016-03-29T01:38:11.664Z,0
2016-03-29T01:39:04.824Z,0
2016-03-29T01:41:01.872Z,0
2016-03-29T01:41:14.469Z,0
2016-03-29T01:42:14.472Z,0
2016-03-29T01:43:14.506Z,0
2016-03-29T01:44:14.524Z,0
2016-03-29T01:45:14.543Z,0
2016-03-29T01:46:27.280Z,0
2016-03-29T01:47:14.563Z,0
2016-03-29T01:48:27.332Z,0
2016-03-29T01:49:14.756Z,0
2016-03-29T01:50:14.619Z,0
2016-03-29T01:51:27.371Z,0
2016-03-29T01:52:27.390Z,0
2016-03-29T01:53:14.658Z,0
2016-03-29T01:54:14.676Z,0
2016-03-29T01:55:15.304Z,0
2016-03-29T01:56:14.790Z,0
2016-03-29T01:57:14.732Z,0
2016-03-29T01:58:16.171Z,0
2016-03-29T01:59:14.799Z,0
2016-03-29T02:00:14.801Z,0
2016-03-29T02:01:15.508Z,0
2016-03-29T02:02:27.698Z,0
2016-03-29T02:03:14.825Z,0
2016-03-29T02:04:14.859Z,0
2016-03-29T02:05:15.472Z,0
2016-03-29T02:06:14.881Z,0
2016-03-29T02:07:14.883Z,0
2016-03-29T02:08:14.917Z,0
2016-03-29T02:09:15.545Z,0
2016-03-29T02:10:14.939Z,0
2016-03-29T02:11:27.722Z,0
2016-03-29T02:12:27.724Z,0
2016-03-29T02:13:15.024Z,0
2016-03-29T02:14:14.996Z,0
2016-03-29T02:15:15.108Z,0
2016-03-29T02:16:15.049Z,0
2016-03-29T02:17:15.067Z,0
2016-03-29T02:18:15.085Z,0
2016-03-29T02:19:15.290Z,0
2016-03-29T02:20:21.387Z,0
2016-03-29T02:21:15.343Z,0
2016-03-29T02:22:15.142Z,0
2016-03-29T02:23:15.145Z,0
2016-03-29T02:24:15.162Z,0
2016-03-29T02:25:21.448Z,0
2016-03-29T02:26:15.637Z,0
2016-03-29T02:27:15.218Z,0
2016-03-29T02:28:15.237Z,0
2016-03-29T02:29:21.661Z,0
2016-03-29T02:30:15.289Z,0
2016-03-29T02:31:15.275Z,0
2016-03-29T02:32:21.653Z,0
2016-03-29T02:33:21.609Z,0
2016-03-29T02:34:15.315Z,0
2016-03-29T02:35:15.349Z,0
2016-03-29T02:36:15.352Z,0
2016-03-29T02:37:15.370Z,0
2016-03-29T02:38:15.388Z,0
2016-03-29T02:39:15.406Z,0
2016-03-29T02:40:15.425Z,0
2016-03-29T02:41:15.647Z,0
2016-03-29T02:42:21.711Z,0
2016-03-29T02:43:15.496Z,0
2016-03-29T02:44:15.467Z,0
2016-03-29T02:45:21.752Z,0
2016-03-29T02:46:16.050Z,0
2016-03-29T02:47:15.662Z,0
2016-03-29T02:48:16.963Z,0
2016-03-29T02:49:15.558Z,0
2016-03-29T02:50:15.561Z,0
2016-03-29T02:51:28.314Z,0
2016-03-29T02:52:15.614Z,0
2016-03-29T02:53:41.288Z,0
2016-03-29T02:54:21.884Z,0
2016-03-29T02:55:46.981Z,0
2016-03-29T02:56:15.812Z,0
2016-03-29T02:57:46.987Z,0
2016-03-29T02:58:15.770Z,0
2016-03-29T02:59:15.710Z,0
2016-03-29T03:00:15.838Z,0
2016-03-29T03:01:28.482Z,0
2016-03-29T03:02:15.828Z,0
2016-03-29T03:03:15.784Z,0
2016-03-29T03:04:28.537Z,0
2016-03-29T03:05:17.273Z,0
2016-03-29T03:06:28.604Z,0
2016-03-29T03:07:15.842Z,0
2016-03-29T03:09:25.394Z,0
2016-03-29T03:10:38.146Z,0
2016-03-29T03:11:31.617Z,0
2016-03-29T03:12:25.433Z,0
2016-03-29T03:13:25.451Z,0
2016-03-29T03:14:25.485Z,0
2016-03-29T03:15:25.675Z,0
2016-03-29T03:16:31.756Z,0
2016-03-29T03:17:25.680Z,0
2016-03-29T03:18:25.058Z,0
2016-03-29T03:19:25.671Z,0
2016-03-29T03:20:25.563Z,0
2016-03-29T03:21:25.598Z,0
2016-03-29T03:22:25.600Z,0
2016-03-29T03:23:25.650Z,0
2016-03-29T03:24:25.621Z,0
2016-03-29T03:25:25.859Z,0
2016-03-29T03:26:25.596Z,0
2016-03-29T03:27:25.676Z,0
2016-03-29T03:28:25.710Z,0
2016-03-29T03:29:27.119Z,0
2016-03-29T03:30:25.809Z,0
2016-03-29T03:31:25.828Z,0
2016-03-29T03:32:26.003Z,0
2016-03-29T03:33:25.864Z,0
2016-03-29T03:34:26.179Z,0
2016-03-29T03:35:38.526Z,0
2016-03-29T03:36:25.997Z,0
2016-03-29T03:37:45.032Z,0
2016-03-29T03:38:32.769Z,0
2016-03-29T03:39:51.709Z,0
2016-03-29T03:40:26.039Z,0
2016-03-29T03:41:25.980Z,0
2016-03-29T03:42:38.639Z,0
2016-03-29T03:43:25.922Z,0
2016-03-29T03:44:25.941Z,0
2016-03-29T03:45:38.708Z,0
2016-03-29T03:46:26.009Z,0
2016-03-29T03:47:45.214Z,0
2016-03-29T03:48:38.733Z,0
2016-03-29T03:49:51.674Z,0
2016-03-29T03:50:26.035Z,0
2016-03-29T03:51:26.647Z,0
2016-03-29T03:52:38.790Z,0
2016-03-29T03:53:26.075Z,0
2016-03-29T03:54:38.843Z,0
2016-03-29T03:55:38.845Z,0
2016-03-29T03:56:45.332Z,0
2016-03-29T03:57:25.976Z,0
2016-03-29T03:58:26.181Z,0
2016-03-29T03:59:26.185Z,0
2016-03-29T04:00:26.328Z,0
2016-03-29T04:01:26.221Z,0
2016-03-29T04:02:27.083Z,0
2016-03-29T04:03:26.242Z,0
2016-03-29T04:04:26.276Z,0
2016-03-29T04:05:26.872Z,0
2016-03-29T04:06:26.406Z,0
2016-03-29T04:07:26.314Z,0
2016-03-29T04:08:32.803Z,0
2016-03-29T04:09:32.633Z,0
2016-03-29T04:10:26.339Z,0
2016-03-29T04:11:39.108Z,0
2016-03-29T04:12:32.641Z,0
2016-03-29T04:13:26.394Z,0
2016-03-29T04:14:38.928Z,0
2016-03-29T04:15:39.289Z,0
2016-03-29T04:16:27.042Z,0
2016-03-29T04:17:45.685Z,0
2016-03-29T04:18:39.220Z,0
2016-03-29T04:19:52.207Z,0
2016-03-29T04:20:26.491Z,0
2016-03-29T04:22:04.103Z,0
2016-03-29T04:22:26.527Z,0
2016-03-29T04:23:26.561Z,0
2016-03-29T04:24:26.563Z,0
2016-03-29T04:25:26.598Z,0
2016-03-29T04:26:39.366Z,0
2016-03-29T04:27:26.635Z,0
2016-03-29T04:28:26.669Z,0
2016-03-29T04:29:33.046Z,0
2016-03-29T04:30:26.784Z,0
2016-03-29T04:31:39.443Z,0
2016-03-29T04:32:26.976Z,0
2016-03-29T04:34:23.826Z,0
2016-03-29T04:34:36.591Z,0
2016-03-29T04:35:36.578Z,4
2016-03-29T04:36:36.628Z,4
2016-03-29T04:37:42.959Z,4
2016-03-29T04:38:36.664Z,4
2016-03-29T04:39:36.667Z,4
2016-03-29T04:40:36.670Z,8
2016-03-29T04:41:36.704Z,8
2016-03-29T04:42:36.691Z,8
2016-03-29T04:43:43.069Z,12
2016-03-29T04:44:43.024Z,16
2016-03-29T04:45:38.183Z,12
2016-03-29T04:46:55.983Z,20
2016-03-29T04:47:36.861Z,20
2016-03-29T04:49:02.488Z,28
2016-03-29T04:49:49.538Z,28
2016-03-29T04:51:08.134Z,32
2016-03-29T04:51:56.058Z,36
2016-03-29T04:54:46.364Z,52
2016-03-29T04:55:46.304Z,56
2016-03-29T04:56:47.182Z,56
2016-03-29T04:57:46.357Z,56
2016-03-29T04:58:46.375Z,60
2016-03-29T04:59:59.127Z,68
2016-03-29T05:00:46.990Z,76
2016-03-29T05:01:46.867Z,88
2016-03-29T05:02:52.901Z,104
2016-03-29T05:03:59.201Z,120
2016-03-29T05:04:46.484Z,124
2016-03-29T05:05:46.486Z,136
2016-03-29T05:06:59.271Z,160
2016-03-29T05:08:12.354Z,192
2016-03-29T05:08:46.604Z,204
2016-03-29T05:09:46.560Z,228
2016-03-29T05:10:46.579Z,252
2016-03-29T05:11:46.581Z,264
2016-03-29T05:12:46.614Z,272
2016-03-29T05:13:46.650Z,272
2016-03-29T05:14:46.667Z,284
2016-03-29T05:15:46.732Z,292
2016-03-29T05:16:46.672Z,300
2016-03-29T05:17:46.722Z,312
2016-03-29T05:18:46.709Z,320
2016-03-29T05:19:46.790Z,332
2016-03-29T05:20:46.715Z,348
2016-03-29T05:21:49.858Z,360
2016-03-29T05:22:46.767Z,380
2016-03-29T05:23:59.519Z,408
2016-03-29T05:24:47.085Z,428
2016-03-29T05:26:06.025Z,460
2016-03-29T05:26:48.262Z,476
2016-03-29T05:28:12.533Z,532
2016-03-29T05:29:02.674Z,572
2016-03-29T05:29:56.505Z,616
2016-03-29T05:31:09.182Z,688
2016-03-29T05:31:56.557Z,732
2016-03-29T05:34:06.265Z,832
2016-03-29T05:34:18.893Z,828
2016-03-29T05:35:18.848Z,812
2016-03-29T05:36:18.852Z,796
2016-03-29T05:37:25.135Z,796
2016-03-29T05:38:18.903Z,824
2016-03-29T05:39:18.906Z,896
2016-03-29T05:40:25.222Z,1000
2016-03-29T05:41:25.692Z,1132
2016-03-29T05:42:18.992Z,1248
2016-03-29T05:43:19.026Z,1348
2016-03-29T05:44:18.982Z,1408
2016-03-29T05:45:19.016Z,1436
2016-03-29T05:46:19.019Z,1488
2016-03-29T05:47:19.053Z,1576
2016-03-29T05:48:25.336Z,1708
2016-03-29T05:49:19.074Z,1804
2016-03-29T05:50:19.107Z,1624
2016-03-29T05:51:19.127Z,1436
2016-03-29T05:52:19.129Z,1404
2016-03-29T05:53:19.147Z,1436
2016-03-29T05:54:19.166Z,1312
2016-03-29T05:55:19.184Z,1204
2016-03-29T05:56:19.218Z,1220
2016-03-29T05:57:19.204Z,1328
2016-03-29T05:58:19.285Z,1440
2016-03-29T05:59:19.241Z,1544
2016-03-29T06:00:19.275Z,1672
2016-03-29T06:01:19.278Z,1772
2016-03-29T06:02:19.296Z,1844
2016-03-29T06:03:19.299Z,1948
2016-03-29T06:04:19.318Z,2104
2016-03-29T06:05:19.335Z,2276
2016-03-29T06:06:19.370Z,2396
2016-03-29T06:07:19.529Z,2572
2016-03-29T06:08:19.406Z,2752
2016-03-29T06:09:19.440Z,3028
2016-03-29T06:10:19.430Z,3492
2016-03-29T06:11:19.481Z,4928
2016-03-29T06:12:19.468Z,6068
2016-03-29T06:13:19.471Z,6048
2016-03-29T06:14:19.521Z,7252
2016-03-29T06:15:19.507Z,7964
2016-03-29T06:16:19.526Z,8612
2016-03-29T06:17:19.574Z,8704
2016-03-29T06:18:32.313Z,7964
2016-03-29T06:19:20.237Z,8872
2016-03-29T06:20:32.318Z,10776
2016-03-29T06:21:21.226Z,6860
2016-03-29T06:22:19.729Z,6484
2016-03-29T06:23:32.544Z,5964
2016-03-29T06:24:26.031Z,5516
2016-03-29T06:25:39.018Z,5072
2016-03-29T06:26:26.021Z,4816
2016-03-29T06:27:45.273Z,4580
2016-03-29T06:28:33.136Z,4528
2016-03-29T06:29:51.138Z,4588
2016-03-29T06:30:39.001Z,4780
2016-03-29T06:31:19.816Z,5020
2016-03-29T06:33:23.664Z,5076
2016-03-29T06:33:36.227Z,5016
2016-03-29T06:34:36.292Z,4876
2016-03-29T06:35:48.998Z,4800
2016-03-29T06:36:49.000Z,4756
2016-03-29T06:39:11.588Z,5208
2016-03-29T06:39:58.619Z,5648
2016-03-29T06:41:17.218Z,6180
2016-03-29T06:41:49.530Z,6264
2016-03-29T06:43:46.035Z,6088
2016-03-29T06:43:58.598Z,6068
2016-03-29T06:45:58.634Z,5800
2016-03-29T06:46:58.653Z,5664
2016-03-29T06:48:11.408Z,5616
2016-03-29T06:48:59.283Z,5380
2016-03-29T06:50:17.976Z,5160
2016-03-29T06:51:01.851Z,5072
2016-03-29T06:52:27.544Z,5080
2016-03-29T06:53:11.407Z,5184
2016-03-29T06:54:11.447Z,5444
2016-03-29T06:55:24.150Z,5540
2016-03-29T06:56:12.294Z,5728
2016-03-29T06:57:37.185Z,6024
2016-03-29T06:58:24.187Z,6376
2016-03-29T06:59:43.380Z,7088
2016-03-29T07:00:30.657Z,7772
2016-03-29T07:03:11.538Z,12732
2016-03-29T07:03:45.850Z,12684
2016-03-29T07:06:01.162Z,8108
2016-03-29T07:07:01.083Z,6260
2016-03-29T07:09:03.695Z,5584
2016-03-29T07:09:41.790Z,5792
2016-03-29T07:10:16.104Z,5908
2016-03-29T07:11:48.246Z,5688
2016-03-29T07:12:23.107Z,5376
2016-03-29T07:14:22.767Z,4836
2016-03-29T07:14:54.549Z,4840
2016-03-29T07:15:35.363Z,4932
2016-03-29T07:17:37.977Z,5200
2016-03-29T07:17:50.556Z,5232
2016-03-29T07:18:50.637Z,5672
2016-03-29T07:20:03.342Z,6600
2016-03-29T07:20:50.610Z,7444
2016-03-29T07:22:09.660Z,9736
2016-03-29T07:22:50.647Z,10880
2016-03-29T07:23:50.649Z,11816
2016-03-29T07:24:51.325Z,15968
2016-03-29T07:25:51.406Z,14608
2016-03-29T07:26:57.361Z,12632
2016-03-29T07:27:50.754Z,11788
2016-03-29T07:28:50.991Z,12348
2016-03-29T07:29:57.056Z,12508
2016-03-29T07:30:58.481Z,12324
2016-03-29T07:31:51.436Z,16256
2016-03-29T07:32:50.814Z,15360
2016-03-29T07:34:10.099Z,19360
2016-03-29T07:34:50.882Z,14372
2016-03-29T07:35:50.932Z,13912
2016-03-29T07:36:51.513Z,12956
2016-03-29T07:37:50.953Z,12596
2016-03-29T07:39:03.706Z,12264
2016-03-29T07:39:50.974Z,12336
2016-03-29T07:40:51.211Z,12420
2016-03-29T07:41:51.058Z,13468
2016-03-29T07:42:51.029Z,21920
2016-03-29T07:43:51.063Z,15936
2016-03-29T07:44:51.143Z,47680
2016-03-29T07:45:51.099Z,20512
2016-03-29T07:46:51.180Z,19072
2016-03-29T07:47:51.152Z,22848
2016-03-29T07:48:51.201Z,21952
2016-03-29T07:49:51.174Z,20896
2016-03-29T07:50:51.176Z,22112
2016-03-29T07:51:51.210Z,18720
2016-03-29T07:52:51.212Z,17376
2016-03-29T07:53:51.232Z,15648
2016-03-29T07:54:51.281Z,15136
2016-03-29T07:55:51.408Z,14236
2016-03-29T07:56:57.693Z,13120
2016-03-29T07:57:51.335Z,13108
2016-03-29T07:58:51.338Z,13340
2016-03-29T07:59:51.388Z,12900
2016-03-29T08:00:51.406Z,12504
2016-03-29T08:01:51.425Z,12568
2016-03-29T08:02:52.834Z,13528
2016-03-29T08:03:51.680Z,14820
2016-03-29T08:04:51.651Z,15840
2016-03-29T08:06:04.279Z,15776
2016-03-29T08:06:51.610Z,15904
2016-03-29T08:07:51.612Z,15904
2016-03-29T08:08:52.162Z,13932
2016-03-29T08:09:51.634Z,14692
2016-03-29T08:10:51.605Z,15264
2016-03-29T08:12:04.530Z,18208
2016-03-29T08:12:51.750Z,19744
2016-03-29T08:13:51.691Z,20160
2016-03-29T08:15:04.522Z,18560
2016-03-29T08:15:51.713Z,19872
2016-03-29T08:16:51.809Z,18752
2016-03-29T08:18:04.499Z,18240
2016-03-29T08:18:51.892Z,18400
2016-03-29T08:20:11.004Z,15188
2016-03-29T08:20:51.851Z,13396
2016-03-29T08:22:17.619Z,14076
2016-03-29T08:22:51.888Z,14088
2016-03-29T08:23:51.953Z,13120
2016-03-29T08:25:04.658Z,11548
2016-03-29T08:25:52.599Z,10308
2016-03-29T08:27:17.788Z,11336
2016-03-29T08:27:51.979Z,10704
2016-03-29T08:28:52.013Z,9864
2016-03-29T08:29:52.219Z,10964
2016-03-29T08:30:52.049Z,10832
2016-03-29T08:31:52.084Z,11368
2016-03-29T08:32:52.101Z,12948
2016-03-29T08:33:52.120Z,12908
2016-03-29T08:34:52.201Z,12856
2016-03-29T08:35:52.142Z,12728
2016-03-29T08:36:52.395Z,12500
2016-03-29T08:37:52.209Z,13156
2016-03-29T08:38:58.478Z,13616
2016-03-29T08:40:04.995Z,13072
2016-03-29T08:40:52.248Z,13336
2016-03-29T08:42:05.033Z,13236
2016-03-29T08:42:52.347Z,12984
2016-03-29T08:44:18.038Z,12388
2016-03-29T08:44:52.336Z,11828
2016-03-29T08:46:52.577Z,12600
2016-03-29T08:47:52.549Z,12112
2016-03-29T08:48:52.427Z,9764
2016-03-29T08:49:52.429Z,9556
2016-03-29T08:50:52.447Z,11196
2016-03-29T08:51:52.465Z,11704
2016-03-29T08:52:52.500Z,10548
2016-03-29T08:53:52.533Z,14232
2016-03-29T08:54:52.552Z,11240
2016-03-29T08:55:52.430Z,11220
2016-03-29T08:56:52.635Z,13752
2016-03-29T08:57:52.622Z,15172
2016-03-29T08:58:52.657Z,15132
2016-03-29T09:00:05.377Z,17760
2016-03-29T09:00:53.302Z,15120
2016-03-29T09:01:52.726Z,12700
2016-03-29T09:02:53.323Z,13180
2016-03-29T09:03:52.795Z,15092
2016-03-29T09:05:05.516Z,11904
2016-03-29T09:05:52.786Z,12080
2016-03-29T09:06:52.819Z,13652
2016-03-29T09:07:54.213Z,14464
2016-03-29T09:09:05.621Z,13692
2016-03-29T09:09:52.937Z,14376
2016-03-29T09:11:11.940Z,11732
2016-03-29T09:11:52.895Z,12556
2016-03-29T09:12:52.929Z,13444
2016-03-29T09:13:53.556Z,13784
2016-03-29T09:14:52.981Z,12568
2016-03-29T09:15:53.000Z,11744
2016-03-29T09:16:53.003Z,11668
2016-03-29T09:17:53.052Z,12116
2016-03-29T09:18:53.039Z,13756
2016-03-29T09:19:53.042Z,16512
2016-03-29T09:20:53.091Z,16448
2016-03-29T09:21:53.329Z,13212
2016-03-29T09:22:53.206Z,11672
2016-03-29T09:23:59.412Z,14120
2016-03-29T09:24:53.259Z,12032
2016-03-29T09:25:53.808Z,13628
2016-03-29T09:26:53.217Z,15432
2016-03-29T09:27:53.235Z,14772
2016-03-29T09:28:53.441Z,13520
2016-03-29T09:29:53.287Z,13468
2016-03-29T09:30:53.336Z,11412
2016-03-29T09:31:53.636Z,13224
2016-03-29T09:32:53.186Z,12024
2016-03-29T09:33:53.361Z,10484
2016-03-29T09:34:53.380Z,10868
2016-03-29T09:35:53.616Z,12020
2016-03-29T09:36:53.447Z,11232
2016-03-29T09:37:53.449Z,12308
2016-03-29T09:38:53.312Z,12200
2016-03-29T09:39:53.502Z,12488
2016-03-29T09:40:53.520Z,15936
2016-03-29T09:41:53.538Z,15444
2016-03-29T09:42:59.822Z,15268
2016-03-29T09:43:53.575Z,15452
2016-03-29T09:44:53.593Z,14300
2016-03-29T09:45:53.617Z,12300
2016-03-29T09:46:53.635Z,10712
2016-03-29T09:47:59.934Z,11804
2016-03-29T09:48:53.718Z,11960
2016-03-29T09:49:54.330Z,11268
2016-03-29T09:50:53.755Z,10560
2016-03-29T09:52:06.476Z,10832
2016-03-29T09:52:53.775Z,10212
2016-03-29T09:53:53.795Z,8560
2016-03-29T09:54:54.547Z,6336
2016-03-29T09:55:53.831Z,5852
2016-03-29T09:57:06.475Z,7496
2016-03-29T09:57:53.852Z,7300
2016-03-29T09:58:53.886Z,6976
2016-03-29T10:00:06.669Z,7056
2016-03-29T10:01:06.657Z,7856
2016-03-29T10:02:06.721Z,7404
2016-03-29T10:02:53.959Z,8096
2016-03-29T10:03:54.040Z,8508
2016-03-29T10:04:54.010Z,10152
2016-03-29T10:05:54.046Z,10628
2016-03-29T10:06:54.063Z,8500
2016-03-29T10:07:54.082Z,9548
2016-03-29T10:08:54.101Z,10052
2016-03-29T10:09:54.134Z,12840
2016-03-29T10:10:54.246Z,13052
2016-03-29T10:11:54.154Z,15840
2016-03-29T10:12:53.643Z,14756
2016-03-29T10:13:54.223Z,9560
2016-03-29T10:14:54.304Z,8020
2016-03-29T10:15:54.229Z,7476
2016-03-29T10:16:54.262Z,6976
2016-03-29T10:17:54.281Z,5376
2016-03-29T10:18:54.299Z,4808
2016-03-29T10:19:54.317Z,5612
2016-03-29T10:20:54.351Z,6496
2016-03-29T10:21:54.369Z,7560
2016-03-29T10:22:54.403Z,9080
2016-03-29T10:24:00.656Z,8060
2016-03-29T10:24:55.019Z,9696
2016-03-29T10:25:54.522Z,8648
2016-03-29T10:26:54.477Z,8524
2016-03-29T10:27:54.464Z,7664
2016-03-29T10:29:00.794Z,7088
2016-03-29T10:29:54.516Z,6404
2016-03-29T10:30:54.549Z,6396
2016-03-29T10:31:54.552Z,5984
2016-03-29T10:32:54.586Z,5104
2016-03-29T10:33:54.604Z,6100
2016-03-29T10:34:54.623Z,6676
2016-03-29T10:35:54.657Z,7204
2016-03-29T10:36:54.753Z,8428
2016-03-29T10:37:54.709Z,9960
2016-03-29T10:38:54.790Z,10880
2016-03-29T10:39:54.746Z,11736
2016-03-29T10:40:54.874Z,13624
2016-03-29T10:41:54.751Z,15776
2016-03-29T10:42:54.863Z,17280
2016-03-29T10:43:54.803Z,18656
2016-03-29T10:44:54.853Z,18016
2016-03-29T10:45:54.840Z,18816
2016-03-29T10:46:54.858Z,19648
2016-03-29T10:47:56.298Z,19872
2016-03-29T10:49:07.629Z,19808
2016-03-29T10:50:07.725Z,19616
2016-03-29T10:50:54.916Z,19424
2016-03-29T10:51:54.950Z,19040
2016-03-29T10:52:55.000Z,18752
2016-03-29T10:53:55.049Z,18016
2016-03-29T10:54:55.053Z,17440
2016-03-29T10:55:55.070Z,17088
2016-03-29T10:56:55.058Z,16608
2016-03-29T10:57:55.825Z,16352
2016-03-29T10:58:55.923Z,16768
2016-03-29T10:59:56.566Z,17312
2016-03-29T11:00:55.319Z,17152
2016-03-29T11:01:55.274Z,17376
2016-03-29T11:02:55.386Z,17280
2016-03-29T11:03:55.311Z,17216
2016-03-29T11:04:55.297Z,16608
2016-03-29T11:05:55.925Z,16512
2016-03-29T11:06:55.287Z,16096
2016-03-29T11:07:55.509Z,16096
2016-03-29T11:08:55.308Z,15348
2016-03-29T11:09:55.374Z,16800
2016-03-29T11:10:55.376Z,15128
2016-03-29T11:12:08.332Z,13764
2016-03-29T11:12:55.398Z,17824
2016-03-29T11:13:55.446Z,15904
2016-03-29T11:14:55.465Z,16256
2016-03-29T11:15:55.905Z,15872
2016-03-29T11:16:55.548Z,15808
2016-03-29T11:17:55.848Z,13520
2016-03-29T11:19:01.804Z,11528
2016-03-29T11:19:55.604Z,11204
2016-03-29T11:21:08.309Z,10316
2016-03-29T11:21:55.609Z,10064
2016-03-29T11:23:14.862Z,7476
2016-03-29T11:23:55.677Z,6912
2016-03-29T11:25:27.008Z,11348
2016-03-29T11:25:55.714Z,12844
2016-03-29T11:27:27.061Z,12980
2016-03-29T11:27:58.860Z,13616
2016-03-29T11:29:55.787Z,14508
2016-03-29T11:31:02.086Z,13520
2016-03-29T11:31:55.839Z,13208
2016-03-29T11:32:55.889Z,12984
2016-03-29T11:33:55.875Z,13064
2016-03-29T11:34:57.332Z,10712
2016-03-29T11:35:55.927Z,11184
2016-03-29T11:37:15.166Z,10536
2016-03-29T11:37:55.980Z,9408
2016-03-29T11:39:21.655Z,6068
2016-03-29T11:39:56.017Z,5316
2016-03-29T11:41:27.348Z,5808
2016-03-29T11:42:08.819Z,5036
2016-03-29T11:42:56.103Z,5264
2016-03-29T11:44:15.152Z,7584
2016-03-29T11:44:56.123Z,10036
2016-03-29T11:45:56.126Z,13228
2016-03-29T11:47:08.910Z,15712
2016-03-29T11:47:57.600Z,19264
2016-03-29T11:49:15.462Z,21760
2016-03-29T11:49:56.215Z,19712
2016-03-29T11:51:22.031Z,22112
2016-03-29T11:51:56.939Z,21760
2016-03-29T11:53:27.676Z,19808
2016-03-29T11:54:05.929Z,20672
2016-03-29T11:55:31.651Z,20352
2016-03-29T11:56:05.967Z,20320
2016-03-29T11:58:21.190Z,19040
2016-03-29T11:59:21.505Z,18304
2016-03-29T12:00:34.055Z,17024
2016-03-29T12:01:34.152Z,16544
2016-03-29T12:02:21.405Z,16032
2016-03-29T12:03:21.375Z,14676
2016-03-29T12:04:22.113Z,13732
2016-03-29T12:05:21.474Z,13008
2016-03-29T12:06:34.149Z,11704
2016-03-29T12:07:21.477Z,11708
2016-03-29T12:08:47.105Z,13436
2016-03-29T12:09:22.045Z,13256
2016-03-29T12:10:52.785Z,14192
2016-03-29T12:11:21.504Z,14492
2016-03-29T12:12:21.600Z,14960
2016-03-29T12:13:34.259Z,13592
2016-03-29T12:14:21.730Z,13776
2016-03-29T12:15:40.795Z,13776
2016-03-29T12:16:22.252Z,13852
2016-03-29T12:17:21.473Z,11244
2016-03-29T12:18:21.662Z,10472
2016-03-29T12:19:34.400Z,11492
2016-03-29T12:20:21.699Z,11980
2016-03-29T12:21:21.717Z,11308
2016-03-29T12:22:21.752Z,10284
2016-03-29T12:23:21.755Z,11368
2016-03-29T12:24:21.804Z,11880
2016-03-29T12:25:21.948Z,11944
2016-03-29T12:26:21.841Z,12320
2016-03-29T12:27:21.828Z,13044
2016-03-29T12:28:21.862Z,14088
2016-03-29T12:29:21.896Z,14160
2016-03-29T12:30:34.664Z,14184
2016-03-29T12:31:34.761Z,13948
2016-03-29T12:32:21.966Z,13600
2016-03-29T12:33:22.032Z,12512
2016-03-29T12:34:21.988Z,12576
2016-03-29T12:35:22.052Z,12392
2016-03-29T12:36:34.915Z,11356
2016-03-29T12:37:22.088Z,12460
2016-03-29T12:38:22.154Z,13608
2016-03-29T12:39:22.141Z,14004
2016-03-29T12:40:22.175Z,14252
2016-03-29T12:41:22.178Z,14220
2016-03-29T12:42:22.384Z,13856
2016-03-29T12:43:34.965Z,14120
2016-03-29T12:44:22.327Z,14372
2016-03-29T12:45:41.486Z,15120
2016-03-29T12:46:22.270Z,15712
2016-03-29T12:47:47.991Z,14732
2016-03-29T12:48:23.744Z,14484
2016-03-29T12:49:53.671Z,15648
2016-03-29T12:50:25.390Z,16288
2016-03-29T12:51:23.049Z,16704
2016-03-29T12:52:28.801Z,16000
2016-03-29T12:53:22.539Z,14488
2016-03-29T12:54:22.447Z,14036
2016-03-29T12:55:22.481Z,13172
2016-03-29T12:56:22.515Z,11852
2016-03-29T12:57:35.314Z,9348
2016-03-29T12:58:22.567Z,8636
2016-03-29T12:59:22.586Z,9768
2016-03-29T13:00:22.775Z,10632
2016-03-29T13:01:22.638Z,10348
2016-03-29T13:02:22.671Z,10388
2016-03-29T13:03:22.674Z,10708
2016-03-29T13:04:22.849Z,11152
2016-03-29T13:05:29.024Z,12280
2016-03-29T13:06:28.979Z,13264
2016-03-29T13:07:35.498Z,12772
2016-03-29T13:08:22.813Z,12624
2016-03-29T13:09:22.832Z,10752
2016-03-29T13:10:22.835Z,9576
2016-03-29T13:11:35.587Z,8092
2016-03-29T13:12:22.871Z,6472
2016-03-29T13:13:22.890Z,5844
2016-03-29T13:14:23.095Z,6488
2016-03-29T13:15:23.098Z,7168
2016-03-29T13:16:29.226Z,6444
2016-03-29T13:17:29.243Z,5140
2016-03-29T13:18:23.090Z,4360
2016-03-29T13:19:23.062Z,3212
2016-03-29T13:20:23.126Z,2260
2016-03-29T13:21:23.098Z,2004
2016-03-29T13:22:29.381Z,2076
2016-03-29T13:23:23.166Z,2084
2016-03-29T13:24:23.153Z,2472
2016-03-29T13:25:23.156Z,2840
2016-03-29T13:26:23.189Z,3396
2016-03-29T13:27:23.177Z,3884
2016-03-29T13:28:23.225Z,3876
2016-03-29T13:29:23.260Z,4300
2016-03-29T13:30:23.278Z,5480
2016-03-29T13:31:36.047Z,7712
2016-03-29T13:32:23.283Z,9060
2016-03-29T13:33:23.333Z,10600
2016-03-29T13:34:23.352Z,11756
2016-03-29T13:35:23.369Z,12136
2016-03-29T13:36:23.388Z,12692
2016-03-29T13:37:23.422Z,13888
2016-03-29T13:38:23.424Z,15200
2016-03-29T13:39:23.443Z,16160
2016-03-29T13:40:36.243Z,16480
2016-03-29T13:41:23.479Z,15368
2016-03-29T13:42:42.779Z,14352
2016-03-29T13:43:39.423Z,13940
2016-03-29T13:44:52.412Z,13364
2016-03-29T13:45:26.756Z,13252
2016-03-29T13:46:58.059Z,15072
2016-03-29T13:47:41.981Z,16992
2016-03-29T13:49:01.158Z,19520
2016-03-29T13:49:42.002Z,18752
2016-03-29T13:51:07.726Z,14056
2016-03-29T13:51:48.304Z,11736
2016-03-29T13:52:42.041Z,11076
2016-03-29T13:53:42.090Z,8764